Latest Coastal Weather Observations for Mandurah

IDW60701

Issued at 3:03 pm WST Tuesday 23 May 2017 (issued every 10 minutes, with the page automatically refreshed every 10 minutes)

About coastal observations | Map of coastal stations | Coastal observations for WA | Marine services | Other Formats
Station Details ID: 009977 Name: MANDURAH Lat: -32.52 Lon: 115.71 Height: 3.0 m
Data from the previous 72 hours. | See also: Recent months at Mandurah
Date/Time
WST
Temp
°C
Wind Pressure Rain since
9am
mm
Weather Cloud Vis
km
Sea
Height
m
Swell
Dir  Spd
kts
Gust
kts
hPa Trend Height
m
Period
s
Dir
23/03:00pm 17.6 N 9 11 1020.7 - 0.0 - - - - - - -
23/02:30pm 17.9 N 7 9 1020.7 - 0.0 - - - - - - -
23/02:00pm 18.2 NNW 6 8 1020.8 - 0.0 - - - - - - -
23/01:30pm 17.8 N 8 9 1021.0 - 0.0 - - - - - - -
23/01:00pm 17.9 NNW 9 12 1021.3 - 0.0 - - - - - - -
23/12:30pm 18.3 N 6 7 1021.4 - 0.0 - - - - - - -
23/12:00pm 17.6 N 5 7 1021.9 - 0.0 - - - - - - -
23/11:30am 17.4 N 5 6 1022.3 - 0.0 - - - - - - -
23/11:00am 16.8 N 5 7 1022.5 - 0.0 - - - - - - -
23/10:30am 16.5 NNE 5 7 1022.7 - 0.0 - - - - - - -
23/10:00am 15.9 NNE 6 7 1022.8 - 0.0 - - - - - - -
23/09:30am 15.4 NNE 6 8 1022.8 - 0.0 - - - - - - -
23/09:00am 15.1 NNE 6 8 1022.6 - 5.2 - - - - - - -
23/08:30am 14.7 NNE 6 8 1022.4 - 5.2 - - - - - - -
23/08:00am 14.6 NE 6 8 1022.1 - 5.2 - - - - - - -
23/07:30am 14.6 NNE 6 8 1021.9 - 5.0 - - - - - - -
23/07:00am 14.1 NE 5 7 1021.6 - 5.0 - - - - - - -
23/06:30am 14.3 NE 6 7 1021.4 - 5.0 - - - - - - -
23/06:00am 14.3 NE 6 8 1021.0 - 5.0 Recent precip. - - - - - -
23/05:30am 14.3 ENE 4 6 1021.0 - 4.8 - - - - - - -
23/05:00am 14.2 SE 2 2 1021.0 - 4.8 - - - - - - -
23/04:30am 13.8 ENE 1 4 1020.8 - 4.8 - - - - - - -
23/04:00am 13.6 E 3 4 1020.6 - 4.4 - - - - - - -
23/03:30am 13.8 E 2 3 1020.6 - 4.4 - - - - - - -
23/03:00am 14.5 ESE 3 5 1020.7 - 4.4 Recent precip. - - - - - -
23/02:30am 14.7 NNE 5 8 1020.7 - 3.2 - - - - - - -
23/02:00am 14.6 NE 4 6 1020.6 - 3.0 - - - - - - -
23/01:30am 14.9 NNE 6 7 1020.7 - 3.0 - - - - - - -
23/01:00am 15.2 NNE 5 8 1020.8 - 3.0 - - - - - - -
23/12:30am 14.9 NE 4 5 1020.9 - 2.8 - - - - - - -
23/12:00am 15.0 ENE 2 4 1020.9 - 2.8 - - - - - - -
 
Date/Time
WST
Temp
°C
Wind Pressure Rain since
9am
mm
Weather Cloud Vis
km
Sea
Height
m
Swell
Dir  Spd
kts
Gust
kts
hPa Trend Height
m
Period
s
Dir
22/11:30pm 15.8 NE 7 9 1021.1 - 2.8 - - - - - - -
22/11:00pm 16.2 NNE 5 8 1021.3 - 2.8 - - - - - - -
22/10:30pm 15.7 NW 3 4 1021.4 - 2.8 - - - - - - -
22/10:00pm 15.2 W 2 2 1021.4 - 2.8 - - - - - - -
22/09:30pm 15.2 W 3 6 1021.4 - 2.8 - - - - - - -
22/09:00pm 15.3 SSE 2 5 1021.5 - 2.8 Recent precip. - - - - - -
22/08:30pm 15.5 WSW 7 11 1021.7 - 2.8 - - - - - - -
22/08:00pm 15.5 WNW 8 12 1021.3 - 2.2 - - - - - - -
22/07:30pm 15.4 SW 4 6 1021.2 - 2.0 - - - - - - -
22/07:00pm 15.9 WNW 7 9 1020.7 - 0.2 - - - - - - -
22/06:30pm 15.5 WSW 8 15 1020.7 - 0.2 - - - - - - -
22/06:00pm 17.2 SW 8 13 1020.1 - 0.2 - - - - - - -
22/05:30pm 17.6 W 8 13 1019.7 - 0.2 - - - - - - -
22/05:00pm 17.6 WSW 5 7 1019.6 - 0.2 - - - - - - -
22/04:30pm 17.8 W 8 10 1019.4 - 0.2 - - - - - - -
22/04:00pm 18.2 W 7 9 1019.3 - 0.2 - - - - - - -
22/03:30pm 17.7 N 3 4 1019.1 - 0.2 - - - - - - -
22/03:00pm 17.8 N 2 4 1019.0 - 0.2 - - - - - - -
22/02:30pm 17.2 N 3 5 1019.0 - 0.2 - - - - - - -
22/02:00pm 17.2 NNW 4 6 1018.9 - 0.2 - - - - - - -
22/01:30pm 16.5 N 6 8 1018.9 - 0.2 - - - - - - -
22/01:00pm 16.2 NNE 6 8 1018.9 - 0.2 - - - - - - -
22/12:30pm 16.3 N 6 8 1019.1 - 0.0 - - - - - - -
22/12:00pm 15.8 NNE 5 7 1019.3 - 0.0 - - - - - - -
22/11:30am 15.4 NNE 6 8 1019.5 - 0.0 - - - - - - -
22/11:00am 14.4 NNE 7 9 1019.6 - 0.0 - - - - - - -
22/10:30am 14.7 NNE 6 7 1019.6 - 0.0 - - - - - - -
22/10:00am 13.7 NNE 5 6 1019.5 - 0.0 - - - - - - -
22/09:30am 13.3 NNE 7 8 1019.4 - 0.0 - - - - - - -
22/09:00am 12.2 ENE 4 5 1019.3 - 14.0 - - - - - - -
22/08:30am 11.7 NE 4 6 1018.9 - 14.0 - - - - - - -
22/08:00am 11.9 NNE 8 11 1018.6 - 14.0 - - - - - - -
22/07:30am 10.5 ENE 4 6 1018.0 - 14.0 - - - - - - -
22/07:00am 10.7 ESE 3 4 1017.7 - 14.0 - - - - - - -
22/06:30am 10.9 ENE 3 5 1017.5 - 14.0 - - - - - - -
22/06:00am 11.6 N 4 6 1017.5 - 14.0 - - - - - - -
22/05:30am 11.4 NE 7 9 1017.1 - 14.0 - - - - - - -
22/05:00am 10.7 ENE 3 5 1016.9 - 14.0 - - - - - - -
22/04:30am 10.3 E 4 5 1016.5 - 14.0 - - - - - - -
22/04:00am 10.8 NE 3 5 1016.4 - 14.0 - - - - - - -
22/03:30am 10.4 E 2 5 1016.3 - 14.0 - - - - - - -
22/03:00am 11.3 NE 6 8 1015.9 - 14.0 Recent precip. - - - - - -
22/02:30am 10.5 SSE 1 3 1015.9 - 14.0 - - - - - - -
22/02:00am 10.4 E 3 5 1015.5 - 13.8 - - - - - - -
22/01:30am 10.8 ENE 4 6 1015.6 - 13.6 - - - - - - -
22/01:00am 10.5 ENE 4 8 1015.1 - 11.0 - - - - - - -
22/12:30am 10.8 ESE 4 6 1015.0 - 11.0 - - - - - - -
22/12:00am 10.9 E 3 5 1015.2 - 10.0 Recent precip. - - - - - -
 
Date/Time
WST
Temp
°C
Wind Pressure Rain since
9am
mm
Weather Cloud Vis
km
Sea
Height
m
Swell
Dir  Spd
kts
Gust
kts
hPa Trend Height
m
Period
s
Dir
21/11:30pm 11.5 NNE 4 7 1014.9 - 10.0 - - - - - - -
21/11:00pm 11.1 ENE 2 4 1014.6 - 9.8 - - - - - - -
21/10:30pm 10.8 E 3 5 1014.5 - 9.2 - - - - - - -
21/10:00pm 11.6 SSE 4 6 1014.7 - 9.2 - - - - - - -
21/09:30pm 11.9 SE 7 12 1014.2 - 9.0 - - - - - - -
21/09:00pm 12.4 SSW 8 15 1014.0 - 9.0 Recent precip. - - - - - -
21/08:43pm 13.2 WSW 7 27 1013.6 - 9.0 - - - - - - -
21/08:30pm 12.7 SSW 3 5 1013.5 - 8.8 - - - - - - -
21/08:00pm 12.9 SW 7 12 1013.4 - 8.8 - - - - - - -
21/07:30pm 12.7 SE 4 7 1012.9 - 8.8 - - - - - - -
21/07:00pm 12.7 S 5 9 1012.6 - 8.2 - - - - - - -
21/06:30pm 13.7 SW 3 6 1012.0 - 6.2 - - - - - - -
21/06:00pm 13.7 SSW 7 11 1011.4 - 6.2 - - - - - - -
21/05:30pm 13.5 SSW 5 10 1011.1 - 6.2 - - - - - - -
21/05:00pm 13.7 SSW 8 14 1011.0 - 6.2 - - - - - - -
21/04:30pm 13.4 SW 13 21 1010.9 - 6.2 - - - - - - -
21/04:00pm 14.4 SSW 8 14 1010.0 - 6.2 - - - - - - -
21/03:30pm 13.8 SSW 8 14 1009.8 - 6.2 - - - - - - -
21/03:18pm 13.7 SW 15 26 1009.8 - 6.2 - - - - - - -
21/03:00pm 14.9 SSW 9 14 1009.2 - 5.6 Recent precip. - - - - - -
21/02:30pm 14.4 SSW 10 16 1008.8 - 5.6 - - - - - - -
21/02:00pm 16.1 SSW 8 15 1008.2 - 4.8 - - - - - - -
21/01:30pm 15.6 SSW 8 16 1008.0 - 4.8 - - - - - - -
21/01:00pm 15.1 S 7 11 1007.7 - 4.8 - - - - - - -
21/12:30pm 14.2 SW 11 20 1008.0 - 4.8 - - - - - - -
21/12:00pm 15.4 SSW 11 19 1007.7 - 4.0 Recent precip. - - - - - -
21/11:42am 14.9 SW 15 26 1007.7 - 4.0 - - - - - - -
21/11:30am 15.4 SSW 10 15 1007.4 - 4.0 - - - - - - -
21/11:03am 14.4 SW 15 25 1007.5 - 3.8 - - - - - - -
21/11:00am 15.0 SW 13 25 1007.6 - 3.4 - - - - - - -
21/10:58am 15.9 SW 11 25 1007.3 - 2.8 - - - - - - -
21/10:30am 15.1 S 9 13 1007.2 - 2.6 - - - - - - -
21/10:00am 14.2 SW 14 26 1007.1 - 2.6 - - - - - - -
21/09:53am 14.9 SSW 12 26 1007.0 - 2.4 - - - - - - -
21/09:30am 15.4 SSW 9 15 1006.4 - 0.2 - - - - - - -
21/09:00am 15.7 SSW 11 19 1005.9 - 11.2 - - - - - - -
21/08:47am 15.5 SSW 15 25 1005.7 - 11.2 - - - - - - -
21/08:30am 15.9 SW 13 21 1005.2 - 11.2 - - - - - - -
21/08:00am 15.7 SW 11 18 1004.8 - 11.2 - - - - - - -
21/07:30am 15.9 W 13 23 1004.3 - 10.4 - - - - - - -
21/07:00am 16.3 WSW 15 22 1004.0 - 10.0 - - - - - - -
21/06:39am 16.9 W 15 27 1003.3 - 9.8 - - - - - - -
21/06:30am 16.3 W 12 19 1003.2 - 9.8 - - - - - - -
21/06:07am 17.8 W 17 28 1003.1 - 9.8 - - - - - - -
21/06:00am 17.6 W 17 23 1002.9 - 9.8 - - - - - - -
21/05:30am 17.5 W 19 28 1002.8 - 9.8 - - - - - - -
21/05:00am 17.6 W 19 27 1002.6 - 9.8 - - - - - - -
21/04:30am 17.5 W 19 29 1002.6 - 9.8 - - - - - - -
21/04:00am 17.3 W 20 31 1002.5 - 9.8 - - - - - - -
21/03:30am 16.1 W 20 31 1002.6 - 9.8 - - - - - - -
21/03:16am 15.5 W 21 32 1002.9 - 9.6 - - - - - - -
21/03:00am 16.2 WNW 21 29 1002.9 - 9.6 Recent precip. - - - - - -
21/02:47am 16.2 WNW 25 38 1003.1 - 9.4 - - - - - - -
21/02:46am 16.3 WNW 26 38 1003.1 - 9.4 - - - - - - -
21/02:41am 17.4 WNW 23 38 1002.8 - 8.8 - - - - - - -
21/02:30am 17.0 WNW 24 31 1002.8 - 8.8 - - - - - - -
21/02:00am 16.6 WNW 27 36 1003.3 - 8.8 - - - - - - -
21/01:48am 15.2 WNW 19 29 1003.7 - 8.6 - - - - - - -
21/01:30am 16.2 WNW 28 36 1003.7 - 8.4 - - - - - - -
21/01:09am 16.1 NW 28 36 1004.2 - 7.6 - - - - - - -
21/01:00am 17.0 NW 27 33 1003.9 - 7.4 - - - - - - -
21/12:38am 17.5 NW 25 49 1004.1 - 6.8 - - - - - - -
21/12:37am 17.7 NW 23 34 1004.0 - 6.8 - - - - - - -
21/12:30am 17.4 NW 24 31 1004.0 - 6.8 - - - - - - -
21/12:27am 17.2 NW 25 36 1004.2 - 6.8 - - - - - - -
21/12:00am 16.7 NW 23 29 1004.8 - 6.8 - - - - - - -
 
Date/Time
WST
Temp
°C
Wind Pressure Rain since
9am
mm
Weather Cloud Vis
km
Sea
Height
m
Swell
Dir  Spd
kts
Gust
kts
hPa Trend Height
m
Period
s
Dir
20/11:45pm 17.4 NW 25 36 1005.1 - 6.8 - - - - - - -
20/11:30pm 16.9 NW 22 29 1005.5 - 6.8 - - - - - - -
20/11:06pm 17.0 NW 15 30 1005.9 - 6.8 - - - - - - -
20/11:00pm 16.1 NW 14 17 1006.0 - 6.8 - - - - - - -
20/10:53pm 15.6 NW 18 28 1006.1 - 6.8 - - - - - - -
20/10:45pm 15.5 NW 26 38 1006.6 - 6.8 - - - - - - -
20/10:42pm 16.3 NW 24 38 1006.4 - 4.8 - - - - - - -
20/10:40pm 17.3 NNW 21 32 1006.3 - 4.4 - - - - - - -
20/10:30pm 17.4 NW 19 25 1006.5 - 4.4 - - - - - - -
20/10:00pm 17.1 NW 21 25 1007.2 - 4.4 - - - - - - -
20/09:30pm 16.4 NW 20 25 1007.8 - 4.4 - - - - - - -
20/09:14pm 17.1 NW 20 30 1008.0 - 3.8 - - - - - - -
20/09:00pm 16.4 NW 13 20 1008.2 - 3.4 - - - - - - -
20/08:30pm 15.2 NNW 15 21 1008.8 - 3.4 - - - - - - -
20/08:00pm 14.1 W 11 17 1009.3 - 3.4 - - - - - - -
20/07:30pm 14.2 NE 11 14 1009.2 - 3.2 - - - - - - -
20/07:00pm 14.0 NE 9 12 1009.6 - 3.2 - - - - - - -
20/06:30pm 14.2 NNE 12 15 1009.8 - 3.2 - - - - - - -
20/06:00pm 13.5 ENE 6 11 1009.7 - 2.0 Recent precip. - - - - - -
20/05:30pm 13.7 NE 6 9 1010.3 - 2.0 - - - - - - -
20/05:00pm 14.1 NE 6 9 1010.5 - 0.8 - - - - - - -
20/04:30pm 14.2 ENE 5 7 1010.8 - 0.8 - - - - - - -
20/04:00pm 14.5 NE 6 7 1011.2 - 0.8 - - - - - - -
20/03:30pm 14.5 NE 6 8 1011.2 - 0.6 - - - - - - -

Other Formats:

Comma delimited format used in spreadsheet applications
http://www.bom.gov.au/fwo/IDW60701/IDW60701.94605.axf

JavaScript Object Notation format (JSON) in row-major order
http://www.bom.gov.au/fwo/IDW60701/IDW60701.94605.json